sensor_id;sensor_type;location;lat;lon;timestamp;pressure;altitude;pressure_sealevel;temperature;humidity
15263;BME280;7733;51.554;13.590;2023-03-23T00:01:49;99632.00;;;14.46;62.54
15263;BME280;7733;51.554;13.590;2023-03-23T00:04:18;99624.09;;;14.46;62.57
15263;BME280;7733;51.554;13.590;2023-03-23T00:06:44;99622.94;;;14.92;61.22
15263;BME280;7733;51.554;13.590;2023-03-23T00:09:13;99624.47;;;14.98;61.07
15263;BME280;7733;51.554;13.590;2023-03-23T00:11:41;99626.94;;;14.82;61.50
15263;BME280;7733;51.554;13.590;2023-03-23T00:14:10;99626.72;;;14.66;61.95
15263;BME280;7733;51.554;13.590;2023-03-23T00:16:40;99623.66;;;14.96;61.26
15263;BME280;7733;51.554;13.590;2023-03-23T00:19:13;99628.03;;;14.76;61.90
15263;BME280;7733;51.554;13.590;2023-03-23T00:21:41;99613.38;;;14.89;61.69
15263;BME280;7733;51.554;13.590;2023-03-23T00:24:25;99618.41;;;14.55;62.74
15263;BME280;7733;51.554;13.590;2023-03-23T00:26:51;99614.31;;;14.26;64.02
15263;BME280;7733;51.554;13.590;2023-03-23T00:29:21;99616.34;;;14.19;64.59
15263;BME280;7733;51.554;13.590;2023-03-23T00:31:49;99617.28;;;14.39;63.60
15263;BME280;7733;51.554;13.590;2023-03-23T00:34:19;99616.09;;;14.47;63.30
15263;BME280;7733;51.554;13.590;2023-03-23T00:36:51;99619.53;;;14.27;63.98
15263;BME280;7733;51.554;13.590;2023-03-23T00:39:19;99610.03;;;14.45;63.47
15263;BME280;7733;51.554;13.590;2023-03-23T00:41:46;99606.81;;;14.37;63.76
15263;BME280;7733;51.554;13.590;2023-03-23T00:44:13;99609.97;;;14.47;63.55
15263;BME280;7733;51.554;13.590;2023-03-23T00:46:46;99598.34;;;14.71;62.55
15263;BME280;7733;51.554;13.590;2023-03-23T00:49:17;99605.41;;;14.91;61.90
15263;BME280;7733;51.554;13.590;2023-03-23T00:51:43;99596.63;;;14.90;61.67
15263;BME280;7733;51.554;13.590;2023-03-23T00:54:11;99589.34;;;14.75;62.19
15263;BME280;7733;51.554;13.590;2023-03-23T00:56:37;99591.44;;;14.69;62.24
15263;BME280;7733;51.554;13.590;2023-03-23T00:59:05;99583.56;;;14.87;61.59
15263;BME280;7733;51.554;13.590;2023-03-23T01:01:32;99582.66;;;14.68;62.03
15263;BME280;7733;51.554;13.590;2023-03-23T01:03:59;99586.22;;;14.67;61.87
15263;BME280;7733;51.554;13.590;2023-03-23T01:06:35;99584.94;;;14.55;62.03
15263;BME280;7733;51.554;13.590;2023-03-23T01:09:05;99583.19;;;14.95;61.15
15263;BME280;7733;51.554;13.590;2023-03-23T01:11:32;99575.94;;;14.80;61.53
15263;BME280;7733;51.554;13.590;2023-03-23T01:13:58;99578.53;;;14.81;61.18
15263;BME280;7733;51.554;13.590;2023-03-23T01:16:25;99570.56;;;14.83;61.39
15263;BME280;7733;51.554;13.590;2023-03-23T01:18:51;99555.06;;;14.55;62.00
15263;BME280;7733;51.554;13.590;2023-03-23T01:21:20;99560.47;;;14.52;62.36
15263;BME280;7733;51.554;13.590;2023-03-23T01:23:46;99553.34;;;14.74;61.76
15263;BME280;7733;51.554;13.590;2023-03-23T01:26:17;99557.53;;;14.78;61.42
15263;BME280;7733;51.554;13.590;2023-03-23T01:28:44;99560.44;;;14.31;63.42
15263;BME280;7733;51.554;13.590;2023-03-23T01:31:16;99553.19;;;14.16;63.76
15263;BME280;7733;51.554;13.590;2023-03-23T01:33:43;99559.66;;;14.29;63.74
15263;BME280;7733;51.554;13.590;2023-03-23T01:36:23;99558.72;;;14.10;63.83
15263;BME280;7733;51.554;13.590;2023-03-23T01:38:50;99557.09;;;14.28;63.41
15263;BME280;7733;51.554;13.590;2023-03-23T01:41:18;99560.84;;;14.43;63.31
15263;BME280;7733;51.554;13.590;2023-03-23T01:44:07;99557.72;;;14.13;64.18
15263;BME280;7733;51.554;13.590;2023-03-23T01:46:35;99558.84;;;14.07;64.51
15263;BME280;7733;51.554;13.590;2023-03-23T01:49:25;99550.38;;;13.99;64.36
15263;BME280;7733;51.554;13.590;2023-03-23T01:52:04;99545.72;;;14.06;64.60
15263;BME280;7733;51.554;13.590;2023-03-23T01:54:33;99552.47;;;14.33;63.42
15263;BME280;7733;51.554;13.590;2023-03-23T01:57:10;99557.38;;;14.00;64.68
15263;BME280;7733;51.554;13.590;2023-03-23T01:59:38;99555.16;;;14.31;63.56
15263;BME280;7733;51.554;13.590;2023-03-23T02:02:04;99553.66;;;13.84;64.95
15263;BME280;7733;51.554;13.590;2023-03-23T02:04:34;99553.81;;;14.01;64.35
15263;BME280;7733;51.554;13.590;2023-03-23T02:07:00;99545.91;;;14.21;63.37
15263;BME280;7733;51.554;13.590;2023-03-23T02:09:27;99545.53;;;14.30;62.96
15263;BME280;7733;51.554;13.590;2023-03-23T02:11:55;99541.19;;;14.09;63.38
15263;BME280;7733;51.554;13.590;2023-03-23T02:14:24;99535.91;;;14.29;63.07
15263;BME280;7733;51.554;13.590;2023-03-23T02:17:38;99541.41;;;14.25;63.16
15263;BME280;7733;51.554;13.590;2023-03-23T02:26:55;99529.28;;;13.99;63.92
15263;BME280;7733;51.554;13.590;2023-03-23T02:35:38;99526.53;;;14.02;63.59
15263;BME280;7733;51.554;13.590;2023-03-23T02:38:21;99530.66;;;13.87;63.68
15263;BME280;7733;51.554;13.590;2023-03-23T02:40:50;99528.41;;;13.78;63.88
15263;BME280;7733;51.554;13.590;2023-03-23T02:43:24;99519.72;;;13.96;63.52
15263;BME280;7733;51.554;13.590;2023-03-23T02:45:53;99527.84;;;13.92;63.66
15263;BME280;7733;51.554;13.590;2023-03-23T02:48:25;99528.44;;;13.98;63.59
15263;BME280;7733;51.554;13.590;2023-03-23T02:50:54;99516.50;;;13.90;63.38
15263;BME280;7733;51.554;13.590;2023-03-23T02:53:24;99513.94;;;14.09;63.23
15263;BME280;7733;51.554;13.590;2023-03-23T02:55:53;99506.72;;;13.72;63.91
15263;BME280;7733;51.554;13.590;2023-03-23T02:58:21;99501.50;;;13.70;64.07
15263;BME280;7733;51.554;13.590;2023-03-23T03:00:49;99502.78;;;13.82;63.56
15263;BME280;7733;51.554;13.590;2023-03-23T03:03:22;99505.00;;;13.70;63.91
15263;BME280;7733;51.554;13.590;2023-03-23T03:06:18;99501.97;;;13.80;63.49
15263;BME280;7733;51.554;13.590;2023-03-23T03:09:03;99506.28;;;13.82;63.07
15263;BME280;7733;51.554;13.590;2023-03-23T03:11:33;99507.47;;;13.95;62.91
15263;BME280;7733;51.554;13.590;2023-03-23T03:14:08;99504.09;;;13.92;62.44
15263;BME280;7733;51.554;13.590;2023-03-23T03:16:45;99503.53;;;13.85;62.78
15263;BME280;7733;51.554;13.590;2023-03-23T03:19:26;99504.53;;;14.03;61.47
15263;BME280;7733;51.554;13.590;2023-03-23T03:21:58;99495.78;;;14.01;61.75
15263;BME280;7733;51.554;13.590;2023-03-23T03:24:28;99498.06;;;14.10;61.81
15263;BME280;7733;51.554;13.590;2023-03-23T03:26:59;99492.44;;;14.38;60.51
15263;BME280;7733;51.554;13.590;2023-03-23T03:29:30;99490.16;;;14.30;60.10
15263;BME280;7733;51.554;13.590;2023-03-23T03:32:01;99491.56;;;14.38;59.68
15263;BME280;7733;51.554;13.590;2023-03-23T03:34:27;99488.31;;;14.53;59.37
15263;BME280;7733;51.554;13.590;2023-03-23T03:36:56;99495.56;;;14.48;58.98
15263;BME280;7733;51.554;13.590;2023-03-23T03:39:26;99480.00;;;14.62;59.51
15263;BME280;7733;51.554;13.590;2023-03-23T03:41:52;99479.31;;;14.57;59.39
15263;BME280;7733;51.554;13.590;2023-03-23T03:44:18;99469.53;;;14.59;59.02
15263;BME280;7733;51.554;13.590;2023-03-23T03:46:44;99482.50;;;14.65;58.81
15263;BME280;7733;51.554;13.590;2023-03-23T03:49:11;99478.50;;;14.75;58.11
15263;BME280;7733;51.554;13.590;2023-03-23T03:51:41;99474.78;;;14.79;58.35
15263;BME280;7733;51.554;13.590;2023-03-23T03:54:07;99474.91;;;14.76;58.13
15263;BME280;7733;51.554;13.590;2023-03-23T03:56:33;99467.84;;;14.58;59.10
15263;BME280;7733;51.554;13.590;2023-03-23T03:59:02;99467.56;;;14.64;59.17
15263;BME280;7733;51.554;13.590;2023-03-23T04:01:28;99468.84;;;14.55;59.29
15263;BME280;7733;51.554;13.590;2023-03-23T04:03:55;99476.41;;;14.63;59.10
15263;BME280;7733;51.554;13.590;2023-03-23T04:06:21;99476.59;;;14.58;59.29
15263;BME280;7733;51.554;13.590;2023-03-23T04:08:47;99479.88;;;14.45;59.45
15263;BME280;7733;51.554;13.590;2023-03-23T04:11:14;99472.31;;;14.56;59.21
15263;BME280;7733;51.554;13.590;2023-03-23T04:13:41;99476.28;;;14.66;58.80
15263;BME280;7733;51.554;13.590;2023-03-23T04:16:08;99467.78;;;14.78;58.35
15263;BME280;7733;51.554;13.590;2023-03-23T04:18:35;99460.16;;;14.72;58.82
15263;BME280;7733;51.554;13.590;2023-03-23T04:21:03;99461.25;;;14.87;58.73
15263;BME280;7733;51.554;13.590;2023-03-23T04:23:31;99466.84;;;14.79;59.24
15263;BME280;7733;51.554;13.590;2023-03-23T04:25:59;99470.47;;;14.58;59.60
15263;BME280;7733;51.554;13.590;2023-03-23T04:28:26;99469.22;;;14.67;59.54
15263;BME280;7733;51.554;13.590;2023-03-23T04:30:53;99468.47;;;14.44;60.14
15263;BME280;7733;51.554;13.590;2023-03-23T04:33:22;99461.34;;;14.46;60.35
15263;BME280;7733;51.554;13.590;2023-03-23T04:35:52;99459.75;;;14.42;60.44
15263;BME280;7733;51.554;13.590;2023-03-23T04:38:20;99468.69;;;14.38;60.49
15263;BME280;7733;51.554;13.590;2023-03-23T04:40:49;99467.69;;;14.41;60.46
15263;BME280;7733;51.554;13.590;2023-03-23T04:43:22;99462.84;;;14.31;60.46
15263;BME280;7733;51.554;13.590;2023-03-23T04:45:58;99458.38;;;14.73;59.50
15263;BME280;7733;51.554;13.590;2023-03-23T04:48:28;99459.28;;;14.53;59.92
15263;BME280;7733;51.554;13.590;2023-03-23T04:50:55;99456.00;;;14.48;59.71
15263;BME280;7733;51.554;13.590;2023-03-23T04:53:22;99456.50;;;14.56;59.96
15263;BME280;7733;51.554;13.590;2023-03-23T04:55:48;99456.91;;;14.47;59.86
15263;BME280;7733;51.554;13.590;2023-03-23T04:58:16;99454.25;;;14.86;58.70
15263;BME280;7733;51.554;13.590;2023-03-23T05:00:42;99462.78;;;14.72;59.09
15263;BME280;7733;51.554;13.590;2023-03-23T05:03:16;99465.88;;;14.82;58.92
15263;BME280;7733;51.554;13.590;2023-03-23T05:05:44;99467.97;;;14.55;59.67
15263;BME280;7733;51.554;13.590;2023-03-23T05:08:13;99466.78;;;14.62;59.43
15263;BME280;7733;51.554;13.590;2023-03-23T05:10:39;99478.50;;;14.94;58.48
15263;BME280;7733;51.554;13.590;2023-03-23T05:13:05;99477.50;;;14.97;58.52
15263;BME280;7733;51.554;13.590;2023-03-23T05:15:31;99468.84;;;15.12;57.94
15263;BME280;7733;51.554;13.590;2023-03-23T05:17:57;99471.09;;;15.02;58.94
15263;BME280;7733;51.554;13.590;2023-03-23T05:20:23;99464.88;;;15.22;58.15
15263;BME280;7733;51.554;13.590;2023-03-23T05:22:50;99470.44;;;14.97;58.89
15263;BME280;7733;51.554;13.590;2023-03-23T05:25:18;99459.91;;;15.33;57.98
15263;BME280;7733;51.554;13.590;2023-03-23T05:27:48;99458.53;;;14.88;59.90
15263;BME280;7733;51.554;13.590;2023-03-23T05:30:18;99466.53;;;14.87;59.64
15263;BME280;7733;51.554;13.590;2023-03-23T05:32:44;99460.16;;;14.72;60.32
15263;BME280;7733;51.554;13.590;2023-03-23T05:35:12;99459.69;;;15.02;59.18
15263;BME280;7733;51.554;13.590;2023-03-23T05:37:38;99458.84;;;15.18;59.12
15263;BME280;7733;51.554;13.590;2023-03-23T05:40:06;99475.56;;;14.81;60.28
15263;BME280;7733;51.554;13.590;2023-03-23T05:42:35;99477.78;;;14.90;59.67
15263;BME280;7733;51.554;13.590;2023-03-23T05:45:03;99484.50;;;15.16;59.09
15263;BME280;7733;51.554;13.590;2023-03-23T05:47:29;99483.84;;;15.30;59.39
15263;BME280;7733;51.554;13.590;2023-03-23T05:49:56;99481.78;;;15.18;59.00
15263;BME280;7733;51.554;13.590;2023-03-23T05:52:23;99485.41;;;15.34;58.90
15263;BME280;7733;51.554;13.590;2023-03-23T05:54:52;99484.25;;;15.21;59.79
15263;BME280;7733;51.554;13.590;2023-03-23T05:57:18;99485.63;;;15.11;60.40
15263;BME280;7733;51.554;13.590;2023-03-23T05:59:47;99477.00;;;15.26;60.90
15263;BME280;7733;51.554;13.590;2023-03-23T06:02:13;99475.56;;;15.19;60.97
15263;BME280;7733;51.554;13.590;2023-03-23T06:04:40;99471.19;;;15.18;61.96
15263;BME280;7733;51.554;13.590;2023-03-23T06:07:07;99465.44;;;15.10;63.16
15263;BME280;7733;51.554;13.590;2023-03-23T06:09:33;99471.50;;;15.12;63.30
15263;BME280;7733;51.554;13.590;2023-03-23T06:11:59;99462.22;;;15.22;62.92
15263;BME280;7733;51.554;13.590;2023-03-23T06:14:25;99481.63;;;15.21;62.57
15263;BME280;7733;51.554;13.590;2023-03-23T06:16:51;99477.63;;;15.31;62.73
15263;BME280;7733;51.554;13.590;2023-03-23T06:19:17;99468.63;;;15.16;62.84
15263;BME280;7733;51.554;13.590;2023-03-23T06:21:43;99476.06;;;15.27;63.15
15263;BME280;7733;51.554;13.590;2023-03-23T06:24:09;99477.41;;;15.17;62.81
15263;BME280;7733;51.554;13.590;2023-03-23T06:26:38;99468.47;;;15.38;62.00
15263;BME280;7733;51.554;13.590;2023-03-23T06:29:06;99461.28;;;15.23;62.25
15263;BME280;7733;51.554;13.590;2023-03-23T06:31:43;99467.44;;;15.41;62.17
15263;BME280;7733;51.554;13.590;2023-03-23T06:34:10;99476.59;;;15.52;61.30
15263;BME280;7733;51.554;13.590;2023-03-23T06:36:37;99472.63;;;15.25;61.54
15263;BME280;7733;51.554;13.590;2023-03-23T06:39:04;99480.56;;;15.25;61.25
15263;BME280;7733;51.554;13.590;2023-03-23T06:41:32;99481.13;;;15.32;61.27
15263;BME280;7733;51.554;13.590;2023-03-23T06:43:59;99480.50;;;15.27;61.27
15263;BME280;7733;51.554;13.590;2023-03-23T06:46:27;99490.91;;;15.30;61.81
15263;BME280;7733;51.554;13.590;2023-03-23T06:48:53;99496.22;;;15.11;60.96
15263;BME280;7733;51.554;13.590;2023-03-23T06:51:20;99504.03;;;15.31;60.97
15263;BME280;7733;51.554;13.590;2023-03-23T06:53:46;99504.31;;;15.44;60.03
15263;BME280;7733;51.554;13.590;2023-03-23T06:56:12;99501.75;;;15.42;61.30
15263;BME280;7733;51.554;13.590;2023-03-23T06:58:39;99503.31;;;15.46;60.30
15263;BME280;7733;51.554;13.590;2023-03-23T07:01:07;99505.03;;;15.47;60.28
15263;BME280;7733;51.554;13.590;2023-03-23T07:03:34;99522.59;;;15.48;61.09
15263;BME280;7733;51.554;13.590;2023-03-23T07:06:00;99528.19;;;15.24;63.61
15263;BME280;7733;51.554;13.590;2023-03-23T07:08:26;99522.94;;;15.41;62.84
15263;BME280;7733;51.554;13.590;2023-03-23T07:10:53;99521.81;;;15.46;62.31
15263;BME280;7733;51.554;13.590;2023-03-23T07:13:20;99527.16;;;15.82;61.46
15263;BME280;7733;51.554;13.590;2023-03-23T07:15:47;99538.16;;;15.55;62.76
15263;BME280;7733;51.554;13.590;2023-03-23T07:18:14;99534.34;;;15.62;62.15
15263;BME280;7733;51.554;13.590;2023-03-23T07:20:40;99528.59;;;15.52;63.04
15263;BME280;7733;51.554;13.590;2023-03-23T07:23:06;99538.47;;;15.48;62.55
15263;BME280;7733;51.554;13.590;2023-03-23T07:25:33;99543.91;;;15.45;62.47
15263;BME280;7733;51.554;13.590;2023-03-23T07:28:01;99544.31;;;15.36;63.61
15263;BME280;7733;51.554;13.590;2023-03-23T07:30:27;99552.88;;;15.41;63.76
15263;BME280;7733;51.554;13.590;2023-03-23T07:32:56;99549.75;;;15.33;64.10
15263;BME280;7733;51.554;13.590;2023-03-23T07:35:23;99559.38;;;15.34;64.79
15263;BME280;7733;51.554;13.590;2023-03-23T07:37:49;99568.88;;;15.38;65.98
15263;BME280;7733;51.554;13.590;2023-03-23T07:40:15;99570.16;;;15.11;67.61
15263;BME280;7733;51.554;13.590;2023-03-23T07:42:51;99571.72;;;15.15;68.21
15263;BME280;7733;51.554;13.590;2023-03-23T07:45:17;99575.00;;;15.20;68.97
15263;BME280;7733;51.554;13.590;2023-03-23T07:47:44;99575.88;;;15.02;69.80
15263;BME280;7733;51.554;13.590;2023-03-23T07:50:12;99581.00;;;15.05;70.78
15263;BME280;7733;51.554;13.590;2023-03-23T07:52:38;99575.72;;;15.05;71.93
15263;BME280;7733;51.554;13.590;2023-03-23T07:55:06;99586.84;;;14.93;71.72
15263;BME280;7733;51.554;13.590;2023-03-23T07:57:34;99588.44;;;15.15;71.51
15263;BME280;7733;51.554;13.590;2023-03-23T08:00:00;99579.81;;;15.31;72.34
15263;BME280;7733;51.554;13.590;2023-03-23T08:02:26;99583.63;;;15.44;72.46
15263;BME280;7733;51.554;13.590;2023-03-23T08:04:52;99594.22;;;15.63;71.28
15263;BME280;7733;51.554;13.590;2023-03-23T08:07:19;99585.47;;;15.61;72.42
15263;BME280;7733;51.554;13.590;2023-03-23T08:09:47;99588.03;;;15.43;74.29
15263;BME280;7733;51.554;13.590;2023-03-23T08:12:13;99591.63;;;15.42;73.14
15263;BME280;7733;51.554;13.590;2023-03-23T08:14:39;99597.69;;;15.44;72.96
15263;BME280;7733;51.554;13.590;2023-03-23T08:17:07;99590.03;;;15.76;71.67
15263;BME280;7733;51.554;13.590;2023-03-23T08:19:35;99593.81;;;15.51;72.75
15263;BME280;7733;51.554;13.590;2023-03-23T08:22:04;99588.31;;;15.56;71.97
15263;BME280;7733;51.554;13.590;2023-03-23T08:24:31;99597.81;;;15.41;73.42
15263;BME280;7733;51.554;13.590;2023-03-23T08:26:59;99589.53;;;15.30;74.08
15263;BME280;7733;51.554;13.590;2023-03-23T08:29:26;99600.03;;;15.50;73.92
15263;BME280;7733;51.554;13.590;2023-03-23T08:31:52;99594.09;;;15.27;75.58
15263;BME280;7733;51.554;13.590;2023-03-23T08:34:19;99593.28;;;15.06;75.19
15263;BME280;7733;51.554;13.590;2023-03-23T08:36:45;99603.97;;;15.23;74.99
15263;BME280;7733;51.554;13.590;2023-03-23T08:39:12;99600.88;;;15.51;75.02
15263;BME280;7733;51.554;13.590;2023-03-23T08:41:40;99602.94;;;15.07;77.42
15263;BME280;7733;51.554;13.590;2023-03-23T08:44:06;99595.44;;;15.16;75.25
15263;BME280;7733;51.554;13.590;2023-03-23T08:46:34;99596.09;;;15.40;74.53
15263;BME280;7733;51.554;13.590;2023-03-23T08:49:00;99600.59;;;15.38;74.82
15263;BME280;7733;51.554;13.590;2023-03-23T08:51:26;99602.44;;;15.36;73.85
15263;BME280;7733;51.554;13.590;2023-03-23T08:53:52;99602.88;;;15.27;74.27
15263;BME280;7733;51.554;13.590;2023-03-23T08:56:18;99602.66;;;15.50;72.87
15263;BME280;7733;51.554;13.590;2023-03-23T08:58:44;99603.97;;;15.23;71.94
15263;BME280;7733;51.554;13.590;2023-03-23T09:01:09;99594.44;;;15.57;71.40
15263;BME280;7733;51.554;13.590;2023-03-23T09:03:37;99593.31;;;15.43;70.42
15263;BME280;7733;51.554;13.590;2023-03-23T09:06:05;99594.53;;;15.36;71.45
15263;BME280;7733;51.554;13.590;2023-03-23T09:08:32;99590.09;;;15.56;71.70
15263;BME280;7733;51.554;13.590;2023-03-23T09:10:59;99591.03;;;15.55;71.32
15263;BME280;7733;51.554;13.590;2023-03-23T09:13:25;99582.03;;;15.59;71.29
15263;BME280;7733;51.554;13.590;2023-03-23T09:15:51;99585.94;;;15.31;71.71
15263;BME280;7733;51.554;13.590;2023-03-23T09:18:18;99590.38;;;15.49;71.95
15263;BME280;7733;51.554;13.590;2023-03-23T09:20:45;99593.19;;;15.46;70.07
15263;BME280;7733;51.554;13.590;2023-03-23T09:23:11;99597.69;;;15.82;70.16
15263;BME280;7733;51.554;13.590;2023-03-23T09:25:39;99589.88;;;15.79;69.50
15263;BME280;7733;51.554;13.590;2023-03-23T09:28:05;99586.66;;;15.53;70.48
15263;BME280;7733;51.554;13.590;2023-03-23T09:30:34;99598.63;;;15.43;71.07
15263;BME280;7733;51.554;13.590;2023-03-23T09:33:04;99587.53;;;15.35;71.37
15263;BME280;7733;51.554;13.590;2023-03-23T09:35:35;99591.25;;;15.69;69.53
15263;BME280;7733;51.554;13.590;2023-03-23T09:38:03;99589.88;;;15.41;70.66
15263;BME280;7733;51.554;13.590;2023-03-23T09:40:47;99598.31;;;15.49;70.89
15263;BME280;7733;51.554;13.590;2023-03-23T09:48:53;99588.44;;;15.53;70.10
15263;BME280;7733;51.554;13.590;2023-03-23T09:54:21;99582.25;;;15.35;70.25
15263;BME280;7733;51.554;13.590;2023-03-23T09:56:49;99583.00;;;15.56;70.17
15263;BME280;7733;51.554;13.590;2023-03-23T09:59:23;99575.09;;;15.56;69.85
15263;BME280;7733;51.554;13.590;2023-03-23T10:01:57;99577.19;;;15.68;70.72
15263;BME280;7733;51.554;13.590;2023-03-23T10:04:36;99580.06;;;15.64;70.38
15263;BME280;7733;51.554;13.590;2023-03-23T10:07:29;99582.72;;;15.81;70.33
15263;BME280;7733;51.554;13.590;2023-03-23T10:10:00;99590.19;;;15.73;69.85
15263;BME280;7733;51.554;13.590;2023-03-23T10:15:14;99581.16;;;15.77;69.43
15263;BME280;7733;51.554;13.590;2023-03-23T10:18:22;99589.50;;;16.05;68.90
15263;BME280;7733;51.554;13.590;2023-03-23T10:20:59;99565.91;;;15.65;68.95
15263;BME280;7733;51.554;13.590;2023-03-23T10:29:30;99570.97;;;16.05;68.08
15263;BME280;7733;51.554;13.590;2023-03-23T10:32:20;99564.50;;;16.11;67.97
15263;BME280;7733;51.554;13.590;2023-03-23T10:34:58;99567.34;;;16.42;67.22
15263;BME280;7733;51.554;13.590;2023-03-23T10:37:36;99568.94;;;16.10;67.33
15263;BME280;7733;51.554;13.590;2023-03-23T10:40:11;99575.25;;;16.08;66.99
15263;BME280;7733;51.554;13.590;2023-03-23T10:42:40;99574.72;;;16.36;66.70
15263;BME280;7733;51.554;13.590;2023-03-23T10:45:21;99580.84;;;16.19;66.84
15263;BME280;7733;51.554;13.590;2023-03-23T10:48:27;99570.31;;;16.00;66.73
15263;BME280;7733;51.554;13.590;2023-03-23T10:51:00;99568.03;;;16.29;66.71
15263;BME280;7733;51.554;13.590;2023-03-23T10:53:41;99565.19;;;16.15;66.86
15263;BME280;7733;51.554;13.590;2023-03-23T10:56:25;99573.16;;;16.15;66.09
15263;BME280;7733;51.554;13.590;2023-03-23T10:58:52;99563.19;;;16.20;66.59
15263;BME280;7733;51.554;13.590;2023-03-23T11:01:33;99564.44;;;16.30;66.72
15263;BME280;7733;51.554;13.590;2023-03-23T11:04:03;99557.66;;;16.41;66.58
15263;BME280;7733;51.554;13.590;2023-03-23T11:06:36;99564.38;;;16.49;65.83
15263;BME280;7733;51.554;13.590;2023-03-23T11:09:15;99569.25;;;16.56;65.06
15263;BME280;7733;51.554;13.590;2023-03-23T11:11:50;99575.16;;;16.61;65.63
15263;BME280;7733;51.554;13.590;2023-03-23T11:14:30;99585.47;;;16.67;65.09
15263;BME280;7733;51.554;13.590;2023-03-23T11:16:59;99581.78;;;16.53;65.00
15263;BME280;7733;51.554;13.590;2023-03-23T11:19:36;99574.69;;;16.88;63.40
15263;BME280;7733;51.554;13.590;2023-03-23T11:22:24;99572.91;;;16.88;63.64
15263;BME280;7733;51.554;13.590;2023-03-23T11:24:55;99577.59;;;16.83;63.10
15263;BME280;7733;51.554;13.590;2023-03-23T11:27:23;99570.53;;;16.99;62.93
15263;BME280;7733;51.554;13.590;2023-03-23T11:29:56;99574.41;;;16.77;62.97
15263;BME280;7733;51.554;13.590;2023-03-23T11:32:28;99582.41;;;16.92;62.47
15263;BME280;7733;51.554;13.590;2023-03-23T11:35:02;99587.94;;;16.88;62.80
15263;BME280;7733;51.554;13.590;2023-03-23T11:37:44;99582.81;;;16.85;61.83
15263;BME280;7733;51.554;13.590;2023-03-23T11:40:29;99578.47;;;16.66;61.39
15263;BME280;7733;51.554;13.590;2023-03-23T11:43:13;99583.59;;;16.87;62.36
15263;BME280;7733;51.554;13.590;2023-03-23T11:45:48;99583.44;;;16.72;61.17
15263;BME280;7733;51.554;13.590;2023-03-23T11:51:21;99583.44;;;16.72;61.87
15263;BME280;7733;51.554;13.590;2023-03-23T11:54:29;99592.06;;;16.59;62.15
15263;BME280;7733;51.554;13.590;2023-03-23T11:56:56;99579.09;;;16.71;62.77
15263;BME280;7733;51.554;13.590;2023-03-23T11:59:35;99587.63;;;16.77;62.80
15263;BME280;7733;51.554;13.590;2023-03-23T12:02:59;99593.53;;;16.82;63.40
15263;BME280;7733;51.554;13.590;2023-03-23T12:17:03;99583.38;;;17.07;64.92
15263;BME280;7733;51.554;13.590;2023-03-23T12:22:40;99586.41;;;16.66;66.28
15263;BME280;7733;51.554;13.590;2023-03-23T12:28:26;99575.03;;;16.64;66.44
15263;BME280;7733;51.554;13.590;2023-03-23T12:47:50;99567.53;;;17.54;65.08
15263;BME280;7733;51.554;13.590;2023-03-23T12:50:36;99556.94;;;17.86;63.74
15263;BME280;7733;51.554;13.590;2023-03-23T12:53:25;99565.31;;;17.62;64.39
15263;BME280;7733;51.554;13.590;2023-03-23T12:56:26;99555.25;;;17.69;63.39
15263;BME280;7733;51.554;13.590;2023-03-23T12:59:12;99553.22;;;17.57;63.54
15263;BME280;7733;51.554;13.590;2023-03-23T13:02:01;99555.66;;;17.77;62.96
15263;BME280;7733;51.554;13.590;2023-03-23T13:04:45;99544.44;;;17.72;62.76
15263;BME280;7733;51.554;13.590;2023-03-23T13:07:22;99550.09;;;17.66;60.72
15263;BME280;7733;51.554;13.590;2023-03-23T13:10:07;99548.03;;;17.55;60.02
15263;BME280;7733;51.554;13.590;2023-03-23T13:12:38;99540.66;;;17.60;60.05
15263;BME280;7733;51.554;13.590;2023-03-23T13:15:49;99537.66;;;17.35;59.93
15263;BME280;7733;51.554;13.590;2023-03-23T13:21:32;99544.34;;;17.26;59.76
15263;BME280;7733;51.554;13.590;2023-03-23T13:24:17;99537.59;;;17.52;60.01
15263;BME280;7733;51.554;13.590;2023-03-23T13:26:44;99545.09;;;17.60;59.76
15263;BME280;7733;51.554;13.590;2023-03-23T13:29:24;99549.56;;;17.59;59.94
15263;BME280;7733;51.554;13.590;2023-03-23T13:32:11;99573.00;;;17.51;61.16
15263;BME280;7733;51.554;13.590;2023-03-23T13:34:40;99572.22;;;17.33;62.86
15263;BME280;7733;51.554;13.590;2023-03-23T13:37:20;99567.19;;;17.45;63.57
15263;BME280;7733;51.554;13.590;2023-03-23T13:42:51;99554.44;;;17.36;63.72
15263;BME280;7733;51.554;13.590;2023-03-23T13:47:43;99543.97;;;17.17;65.10
15263;BME280;7733;51.554;13.590;2023-03-23T13:50:25;99546.13;;;17.42;65.29
15263;BME280;7733;51.554;13.590;2023-03-23T13:53:00;99536.88;;;17.17;65.05
15263;BME280;7733;51.554;13.590;2023-03-23T13:55:40;99530.75;;;17.32;65.30
15263;BME280;7733;51.554;13.590;2023-03-23T14:03:38;99540.66;;;17.13;64.41
15263;BME280;7733;51.554;13.590;2023-03-23T14:06:16;99535.09;;;17.18;65.27
15263;BME280;7733;51.554;13.590;2023-03-23T14:08:48;99530.66;;;17.18;64.99
15263;BME280;7733;51.554;13.590;2023-03-23T14:11:27;99535.53;;;17.42;64.40
15263;BME280;7733;51.554;13.590;2023-03-23T14:14:01;99540.50;;;17.32;64.51
15263;BME280;7733;51.554;13.590;2023-03-23T14:16:44;99533.97;;;17.22;63.96
15263;BME280;7733;51.554;13.590;2023-03-23T14:19:27;99523.22;;;17.09;64.26
15263;BME280;7733;51.554;13.590;2023-03-23T14:22:00;99534.28;;;17.00;64.58
15263;BME280;7733;51.554;13.590;2023-03-23T14:24:30;99536.47;;;17.09;64.62
15263;BME280;7733;51.554;13.590;2023-03-23T14:27:10;99539.47;;;17.34;63.78
15263;BME280;7733;51.554;13.590;2023-03-23T14:29:38;99536.00;;;17.01;63.99
15263;BME280;7733;51.554;13.590;2023-03-23T14:32:07;99541.47;;;16.98;64.20
15263;BME280;7733;51.554;13.590;2023-03-23T14:34:36;99557.38;;;16.98;64.67
15263;BME280;7733;51.554;13.590;2023-03-23T14:37:03;99553.28;;;17.08;64.69
15263;BME280;7733;51.554;13.590;2023-03-23T14:39:32;99545.25;;;17.10;64.65
15263;BME280;7733;51.554;13.590;2023-03-23T14:42:11;99548.91;;;16.91;65.08
15263;BME280;7733;51.554;13.590;2023-03-23T14:44:51;99534.72;;;16.92;64.39